createdAt,value
2019-05-01T00:01:31.665Z,5.87
2019-05-01T00:04:30.140Z,6.15
2019-05-01T00:07:01.805Z,6.40
2019-05-01T00:09:32.135Z,6.56
2019-05-01T00:12:01.709Z,6.61
2019-05-01T00:14:33.050Z,6.66
2019-05-01T00:17:02.710Z,6.66
2019-05-01T00:19:33.029Z,6.49
2019-05-01T00:22:02.469Z,6.52
2019-05-01T00:24:32.144Z,6.52
2019-05-01T00:27:02.603Z,6.32
2019-05-01T00:29:31.558Z,6.39
2019-05-01T00:32:01.048Z,6.34
2019-05-01T00:34:30.874Z,6.34
2019-05-01T00:37:01.330Z,6.04
2019-05-01T00:39:31.566Z,6.09
2019-05-01T00:42:01.495Z,6.25
2019-05-01T00:44:31.553Z,6.25
2019-05-01T00:47:02.582Z,6.20
2019-05-01T00:49:31.563Z,6.06
2019-05-01T00:52:01.583Z,6.06
2019-05-01T00:54:32.709Z,5.93
2019-05-01T00:57:23.660Z,5.93
2019-05-01T01:00:11.656Z,5.98
2019-05-01T01:02:43.421Z,6.21
2019-05-01T01:05:12.546Z,6.21
2019-05-01T01:07:41.499Z,5.95
2019-05-01T01:10:10.736Z,5.93
2019-05-01T01:12:41.171Z,5.75
2019-05-01T01:15:10.722Z,5.76
2019-05-01T01:17:39.763Z,5.75
2019-05-01T01:20:08.261Z,5.93
2019-05-01T01:22:38.044Z,5.86
2019-05-01T01:25:07.622Z,5.78
2019-05-01T01:30:25.727Z,5.60
2019-05-01T01:32:53.890Z,5.35
2019-05-01T01:35:22.894Z,5.22
2019-05-01T01:37:51.753Z,5.33
2019-05-01T01:40:20.747Z,5.45
2019-05-01T01:42:51.932Z,5.25
2019-05-01T01:45:38.557Z,5.21
2019-05-01T01:48:09.168Z,5.11
2019-05-01T01:50:41.414Z,5.11
2019-05-01T01:53:15.832Z,5.52
2019-05-01T01:55:46.560Z,5.80
2019-05-01T01:58:19.009Z,6.06
2019-05-01T02:01:10.647Z,5.81
2019-05-01T02:03:42.618Z,5.90
2019-05-01T02:06:12.554Z,5.72
2019-05-01T02:08:41.923Z,5.78
2019-05-01T02:11:11.464Z,5.78
2019-05-01T02:13:40.825Z,5.53
2019-05-01T02:16:09.956Z,5.52
2019-05-01T02:18:39.014Z,5.18
2019-05-01T02:21:08.047Z,5.24
2019-05-01T02:23:37.144Z,5.37
2019-05-01T02:26:07.897Z,5.44
2019-05-01T02:28:46.473Z,5.05
2019-05-01T02:31:41.394Z,4.92
2019-05-01T02:34:11.172Z,5.02
2019-05-01T02:36:40.998Z,5.42
2019-05-01T02:39:09.978Z,5.44
2019-05-01T02:41:42.979Z,5.45
2019-05-01T02:44:31.300Z,5.52
2019-05-01T02:47:06.301Z,5.68
2019-05-01T02:49:49.726Z,5.62
2019-05-01T02:52:20.453Z,5.60
2019-05-01T02:54:50.581Z,5.35
2019-05-01T02:57:23.910Z,5.27
2019-05-01T02:59:55.723Z,5.27
2019-05-01T03:02:26.996Z,5.19
2019-05-01T03:04:57.899Z,5.24
2019-05-01T03:07:32.488Z,5.26
2019-05-01T03:10:08.544Z,5.29
2019-05-01T03:12:40.968Z,5.10
2019-05-01T03:15:12.675Z,4.71
2019-05-01T03:17:49.919Z,4.63
2019-05-01T03:20:41.891Z,4.63
2019-05-01T03:23:18.502Z,4.86
2019-05-01T03:25:48.543Z,4.81
2019-05-01T03:28:17.701Z,4.74
2019-05-01T03:30:45.959Z,4.49
2019-05-01T03:33:15.474Z,4.56
2019-05-01T03:35:45.108Z,4.52
2019-05-01T03:38:14.050Z,4.40
2019-05-01T03:40:43.115Z,4.34
2019-05-01T03:43:13.413Z,4.41
2019-05-01T03:45:43.422Z,4.46
2019-05-01T03:48:12.987Z,4.45
2019-05-01T03:50:46.230Z,4.45
2019-05-01T03:53:14.068Z,4.36
2019-05-01T03:55:43.405Z,4.36
2019-05-01T03:58:12.625Z,4.48
2019-05-01T04:01:01.400Z,4.37
2019-05-01T04:03:35.574Z,4.42
2019-05-01T04:06:04.811Z,4.34
2019-05-01T04:08:34.294Z,4.61
2019-05-01T04:11:04.518Z,4.32
2019-05-01T04:13:34.280Z,4.66
2019-05-01T04:16:04.556Z,4.65
2019-05-01T04:18:34.398Z,4.69
2019-05-01T04:21:04.068Z,4.69
2019-05-01T04:23:33.895Z,4.75
2019-05-01T04:26:03.705Z,4.66
2019-05-01T04:29:05.487Z,4.71
2019-05-01T04:31:51.482Z,4.95
2019-05-01T04:34:50.942Z,5.04
2019-05-01T04:37:22.281Z,4.95
2019-05-01T04:39:51.680Z,4.96
2019-05-01T04:42:22.064Z,5.19
2019-05-01T04:44:51.417Z,5.19
2019-05-01T04:47:20.427Z,5.33
2019-05-01T04:49:49.893Z,5.50
2019-05-01T04:52:19.157Z,5.61
2019-05-01T04:54:48.124Z,6.20
2019-05-01T04:57:17.520Z,7.02
2019-05-01T04:59:47.582Z,7.57
2019-05-01T05:02:23.460Z,8.18
2019-05-01T05:04:53.542Z,8.18
2019-05-01T05:07:21.851Z,8.27
2019-05-01T05:09:51.529Z,8.87
2019-05-01T05:12:27.521Z,9.07
2019-05-01T05:15:00.981Z,9.82
2019-05-01T05:17:31.578Z,10.48
2019-05-01T05:20:01.662Z,10.93
2019-05-01T05:22:32.047Z,11.59
2019-05-01T05:25:02.152Z,11.59
2019-05-01T05:27:32.871Z,11.84
2019-05-01T05:30:04.553Z,12.02
2019-05-01T05:32:37.581Z,11.80
2019-05-01T05:35:08.755Z,12.14
2019-05-01T05:38:01.065Z,12.14
2019-05-01T05:40:32.806Z,13.39
2019-05-01T05:43:02.411Z,13.92
2019-05-01T05:45:32.979Z,13.43
2019-05-01T05:48:02.590Z,14.34
2019-05-01T05:50:41.993Z,15.88
2019-05-01T05:53:17.306Z,15.88
2019-05-01T05:55:52.535Z,15.65
2019-05-01T05:58:36.889Z,15.92
2019-05-01T06:01:25.066Z,17.30
2019-05-01T06:04:26.562Z,18.60
2019-05-01T06:07:25.833Z,18.67
2019-05-01T06:10:27.920Z,18.24
2019-05-01T06:13:21.957Z,18.66
2019-05-01T06:16:05.802Z,19.74
2019-05-01T06:19:01.146Z,20.33
2019-05-01T06:21:40.397Z,21.18
2019-05-01T06:24:18.922Z,20.92
2019-05-01T06:26:48.416Z,20.99
2019-05-01T06:29:16.830Z,20.84
2019-05-01T06:31:45.837Z,20.84
2019-05-01T06:34:15.087Z,21.25
2019-05-01T06:36:48.933Z,23.44
2019-05-01T06:39:15.140Z,23.94
2019-05-01T06:41:44.733Z,24.91
2019-05-01T06:44:44.488Z,23.75
2019-05-01T06:47:38.157Z,22.14
2019-05-01T06:50:15.841Z,21.37
2019-05-01T06:52:45.579Z,23.12
2019-05-01T06:55:13.992Z,22.73
2019-05-01T06:57:45.476Z,23.32
2019-05-01T07:00:16.795Z,24.43
2019-05-01T07:02:50.139Z,25.30
2019-05-01T07:05:21.836Z,23.95
2019-05-01T07:07:54.979Z,24.83
2019-05-01T07:10:31.435Z,24.57
2019-05-01T07:12:59.936Z,26.66
2019-05-01T07:15:29.958Z,27.50
2019-05-01T07:18:00.139Z,26.99
2019-05-01T07:20:51.609Z,28.73
2019-05-01T07:23:22.350Z,30.31
2019-05-01T07:25:51.604Z,31.85
2019-05-01T07:28:21.985Z,31.15
2019-05-01T07:31:05.046Z,31.15
2019-05-01T07:33:35.437Z,31.12
2019-05-01T07:36:06.929Z,30.02
2019-05-01T07:38:38.747Z,30.54
2019-05-01T07:41:09.020Z,31.33
2019-05-01T07:43:48.918Z,31.52
2019-05-01T07:46:29.173Z,31.95
2019-05-01T07:48:59.097Z,32.40
2019-05-01T07:51:28.113Z,33.01
2019-05-01T07:53:59.144Z,33.84
2019-05-01T07:56:32.152Z,34.99
2019-05-01T07:59:02.721Z,35.17
2019-05-01T08:02:09.067Z,34.42
2019-05-01T08:04:37.971Z,34.84
2019-05-01T08:07:06.998Z,35.20
2019-05-01T08:09:36.053Z,35.91
2019-05-01T08:12:05.419Z,35.12
2019-05-01T08:14:35.410Z,35.52
2019-05-01T08:17:05.444Z,36.50
2019-05-01T08:19:54.659Z,35.43
2019-05-01T08:22:25.987Z,36.53
2019-05-01T08:24:58.832Z,36.53
2019-05-01T08:27:37.990Z,37.04
2019-05-01T08:30:26.993Z,36.96
2019-05-01T08:33:18.551Z,36.93
2019-05-01T08:35:48.104Z,37.39
2019-05-01T08:38:17.033Z,37.39
2019-05-01T08:40:50.684Z,37.69
2019-05-01T08:43:19.593Z,37.77
2019-05-01T08:46:07.122Z,35.83
2019-05-01T08:48:43.589Z,35.83
2019-05-01T08:51:12.933Z,37.87
2019-05-01T08:53:42.004Z,37.87
2019-05-01T08:56:11.042Z,39.14
2019-05-01T08:58:40.296Z,39.85
2019-05-01T09:01:10.857Z,40.79
2019-05-01T09:03:41.492Z,41.13
2019-05-01T09:06:10.669Z,40.77
2019-05-01T09:08:39.051Z,39.23
2019-05-01T09:11:08.299Z,39.23
2019-05-01T09:13:37.063Z,39.81
2019-05-01T09:16:05.968Z,39.91
2019-05-01T09:18:35.769Z,38.78
2019-05-01T09:21:04.761Z,40.51
2019-05-01T09:23:34.572Z,40.90
2019-05-01T09:26:24.150Z,40.33
2019-05-01T09:28:57.571Z,41.35
2019-05-01T09:31:27.865Z,41.05
2019-05-01T09:33:56.918Z,41.11
2019-05-01T09:36:26.000Z,40.08
2019-05-01T09:41:43.170Z,37.88
2019-05-01T09:44:12.573Z,37.46
2019-05-01T09:46:41.690Z,39.56
2019-05-01T09:49:14.343Z,39.78
2019-05-01T09:52:18.892Z,39.78
2019-05-01T09:55:17.835Z,40.17
2019-05-01T09:57:45.739Z,40.17
2019-05-01T10:00:22.445Z,39.84
2019-05-01T10:02:51.504Z,38.71
2019-05-01T10:07:53.945Z,37.97
2019-05-01T10:10:24.776Z,37.27
2019-05-01T10:12:55.059Z,38.01
2019-05-01T10:15:23.982Z,38.69
2019-05-01T10:17:53.038Z,38.67
2019-05-01T10:20:22.060Z,38.04
2019-05-01T10:22:51.427Z,38.17
2019-05-01T10:25:20.932Z,39.26
2019-05-01T10:27:59.525Z,40.22
2019-05-01T10:31:00.309Z,41.23
2019-05-01T10:33:35.624Z,42.07
2019-05-01T10:36:17.682Z,40.34
2019-05-01T10:38:44.945Z,40.34
2019-05-01T10:41:14.915Z,40.17
2019-05-01T10:43:44.445Z,40.14
2019-05-01T10:46:13.525Z,40.06
2019-05-01T10:48:42.469Z,40.84
2019-05-01T10:51:11.615Z,38.99
2019-05-01T10:53:43.147Z,38.99
2019-05-01T10:56:11.509Z,38.73
2019-05-01T10:58:40.565Z,37.15
2019-05-01T11:01:16.935Z,37.92
2019-05-01T11:03:45.981Z,37.92
2019-05-01T11:06:15.298Z,37.39
2019-05-01T11:08:44.395Z,37.91
2019-05-01T11:11:14.586Z,37.72
2019-05-01T11:13:43.809Z,38.00
2019-05-01T11:16:12.776Z,38.00
2019-05-01T11:18:41.926Z,37.67
2019-05-01T11:21:10.965Z,37.40
2019-05-01T11:23:40.166Z,36.37
2019-05-01T11:26:09.451Z,34.21
2019-05-01T11:28:38.415Z,34.62
2019-05-01T11:31:09.314Z,35.16
2019-05-01T11:34:03.820Z,36.15
2019-05-01T11:37:10.927Z,37.63
2019-05-01T11:39:44.588Z,36.64
2019-05-01T11:42:13.887Z,37.64
2019-05-01T11:44:42.960Z,37.64
2019-05-01T11:47:11.971Z,36.64
2019-05-01T11:49:41.114Z,37.57
2019-05-01T11:52:10.144Z,36.27
2019-05-01T11:54:39.095Z,37.15
2019-05-01T11:57:08.039Z,36.77
2019-05-01T11:59:36.958Z,35.68
2019-05-01T12:02:05.940Z,35.60
2019-05-01T12:04:35.089Z,36.23
2019-05-01T12:07:04.568Z,36.08
2019-05-01T12:09:33.062Z,36.93
2019-05-01T12:12:05.581Z,36.93
2019-05-01T12:14:34.592Z,35.93
2019-05-01T12:17:24.780Z,36.06
2019-05-01T12:19:53.702Z,36.06
2019-05-01T12:22:21.850Z,36.73
2019-05-01T12:24:51.072Z,36.73
2019-05-01T12:27:20.552Z,36.87
2019-05-01T12:29:49.553Z,36.41
2019-05-01T12:32:18.693Z,35.81
2019-05-01T12:34:48.746Z,36.54
2019-05-01T12:37:45.989Z,37.28
2019-05-01T12:40:18.566Z,36.22
2019-05-01T12:42:47.821Z,35.27
2019-05-01T12:45:19.604Z,33.86
2019-05-01T12:48:07.293Z,33.00
2019-05-01T12:50:36.132Z,33.00
2019-05-01T12:53:20.905Z,31.52
2019-05-01T12:56:07.660Z,32.62
2019-05-01T12:58:38.003Z,33.50
2019-05-01T13:01:07.395Z,30.71
2019-05-01T13:03:37.462Z,31.10
2019-05-01T13:06:09.185Z,30.56
2019-05-01T13:08:38.566Z,31.37
2019-05-01T13:11:08.134Z,31.72
2019-05-01T13:13:38.036Z,31.65
2019-05-01T13:16:07.753Z,30.26
2019-05-01T13:18:37.258Z,30.92
2019-05-01T13:21:06.998Z,30.79
2019-05-01T13:23:36.655Z,29.66
2019-05-01T13:26:20.908Z,28.92
2019-05-01T13:29:17.829Z,28.79
2019-05-01T13:31:57.431Z,29.63
2019-05-01T13:34:26.486Z,29.82
2019-05-01T13:37:02.772Z,30.00
2019-05-01T13:39:26.414Z,29.02
2019-05-01T13:41:55.442Z,29.41
2019-05-01T13:44:24.433Z,29.07
2019-05-01T13:46:53.406Z,28.40
2019-05-01T13:49:22.442Z,27.24
2019-05-01T13:51:51.567Z,27.79
2019-05-01T13:54:20.602Z,27.95
2019-05-01T13:56:50.155Z,28.37
2019-05-01T13:59:19.426Z,28.17
2019-05-01T14:01:48.446Z,27.31
2019-05-01T14:04:21.587Z,27.27
2019-05-01T14:06:50.305Z,26.88
2019-05-01T14:09:29.056Z,27.25
2019-05-01T14:11:58.120Z,26.48
2019-05-01T14:14:26.951Z,25.49
2019-05-01T14:16:55.950Z,25.00
2019-05-01T14:19:24.911Z,23.96
2019-05-01T14:22:02.633Z,24.43
2019-05-01T14:24:39.950Z,24.12
2019-05-01T14:27:10.095Z,24.12
2019-05-01T14:29:38.967Z,23.35
2019-05-01T14:32:08.288Z,23.71
2019-05-01T14:34:37.944Z,24.28
2019-05-01T14:37:06.959Z,24.54
2019-05-01T14:39:36.595Z,24.76
2019-05-01T14:42:06.717Z,24.62
2019-05-01T14:44:37.191Z,24.62
2019-05-01T14:47:07.628Z,25.07
2019-05-01T14:49:37.579Z,24.83
2019-05-01T14:52:06.653Z,24.77
2019-05-01T14:54:36.949Z,24.77
2019-05-01T14:57:07.741Z,24.62
2019-05-01T14:59:36.575Z,24.98
2019-05-01T15:02:05.739Z,23.67
2019-05-01T15:04:35.746Z,24.07
2019-05-01T15:07:04.231Z,23.64
2019-05-01T15:09:33.115Z,23.59
2019-05-01T15:12:03.858Z,23.78
2019-05-01T15:14:53.226Z,24.26
2019-05-01T15:17:28.563Z,23.95
2019-05-01T15:20:00.987Z,24.61
2019-05-01T15:22:31.679Z,24.99
2019-05-01T15:24:59.974Z,24.27
2019-05-01T15:27:28.989Z,24.27
2019-05-01T15:29:58.062Z,23.43
2019-05-01T15:32:27.108Z,23.29
2019-05-01T15:34:56.130Z,22.66
2019-05-01T15:37:25.308Z,23.05
2019-05-01T15:40:18.088Z,24.00
2019-05-01T15:43:06.766Z,23.26
2019-05-01T15:45:35.247Z,22.86
2019-05-01T15:48:04.439Z,23.20
2019-05-01T15:50:33.409Z,23.39
2019-05-01T15:53:02.480Z,23.65
2019-05-01T15:55:31.448Z,23.92
2019-05-01T15:58:00.552Z,24.30
2019-05-01T16:00:29.581Z,24.27
2019-05-01T16:02:57.851Z,24.27
2019-05-01T16:05:27.138Z,24.27
2019-05-01T16:08:08.985Z,24.29
2019-05-01T16:10:32.721Z,24.06
2019-05-01T16:13:02.732Z,24.45
2019-05-01T16:15:33.452Z,24.55
2019-05-01T16:18:02.785Z,24.72
2019-05-01T16:20:32.070Z,24.73
2019-05-01T16:23:01.166Z,24.56
2019-05-01T16:25:30.415Z,24.37
2019-05-01T16:27:59.475Z,24.63
2019-05-01T16:30:28.516Z,24.40
2019-05-01T16:32:57.776Z,24.13
2019-05-01T16:35:26.726Z,24.13
2019-05-01T16:37:58.605Z,24.33
2019-05-01T16:40:46.624Z,24.14
2019-05-01T16:43:15.906Z,24.22
2019-05-01T16:45:44.946Z,24.22
2019-05-01T16:49:51.521Z,24.03
2019-05-01T16:52:24.555Z,24.14
2019-05-01T16:54:59.352Z,24.09
2019-05-01T16:57:25.088Z,23.78
2019-05-01T16:59:54.410Z,23.94
2019-05-01T17:04:35.655Z,23.72
2019-05-01T17:07:22.596Z,23.72
2019-05-01T17:10:09.725Z,23.45
2019-05-01T17:12:43.973Z,23.45
2019-05-01T17:15:16.053Z,23.29
2019-05-01T17:17:45.298Z,23.11
2019-05-01T17:20:15.300Z,23.15
2019-05-01T17:22:46.259Z,23.29
2019-05-01T17:25:15.453Z,23.39
2019-05-01T17:27:44.776Z,23.14
2019-05-01T17:30:17.291Z,23.14
2019-05-01T17:32:46.606Z,23.11
2019-05-01T17:35:17.523Z,22.55
2019-05-01T17:37:46.954Z,22.63
2019-05-01T17:40:16.494Z,22.63
2019-05-01T17:42:45.704Z,22.33
2019-05-01T17:45:15.108Z,22.32
2019-05-01T17:47:44.140Z,22.21
2019-05-01T17:50:16.513Z,22.10
2019-05-01T17:52:44.306Z,21.95
2019-05-01T17:55:13.754Z,22.01
2019-05-01T17:57:41.889Z,21.74
2019-05-01T18:00:36.836Z,21.63
2019-05-01T18:03:26.102Z,21.30
2019-05-01T18:06:19.854Z,20.94
2019-05-01T18:08:48.742Z,20.67
2019-05-01T18:11:16.998Z,20.47
2019-05-01T18:13:47.313Z,20.13
2019-05-01T18:16:16.507Z,19.91
2019-05-01T18:18:45.909Z,19.93
2019-05-01T18:21:17.759Z,19.78
2019-05-01T18:24:18.905Z,19.42
2019-05-01T18:27:19.012Z,19.02
2019-05-01T18:29:48.367Z,18.76
2019-05-01T18:32:36.275Z,18.26
2019-05-01T18:35:08.891Z,18.10
2019-05-01T18:37:43.835Z,18.10
2019-05-01T18:40:26.099Z,18.03
2019-05-01T18:42:55.750Z,17.85
2019-05-01T18:45:53.610Z,17.53
2019-05-01T18:48:23.064Z,17.38
2019-05-01T18:50:54.952Z,17.26
2019-05-01T18:53:23.776Z,16.98
2019-05-01T18:55:52.898Z,16.87
2019-05-01T18:58:22.159Z,16.74
2019-05-01T19:00:54.330Z,16.54
2019-05-01T19:03:23.499Z,16.41
2019-05-01T19:05:52.600Z,16.22
2019-05-01T19:08:21.264Z,16.22
2019-05-01T19:10:50.099Z,16.28
2019-05-01T19:13:19.443Z,15.91
2019-05-01T19:15:51.505Z,15.66
2019-05-01T19:18:20.457Z,15.50
2019-05-01T19:20:59.243Z,15.31
2019-05-01T19:23:22.240Z,15.29
2019-05-01T19:25:50.988Z,15.26
2019-05-01T19:28:20.656Z,15.24
2019-05-01T19:30:49.984Z,14.99
2019-05-01T19:33:18.984Z,14.86
2019-05-01T19:35:48.951Z,14.73
2019-05-01T19:38:18.612Z,14.48
2019-05-01T19:40:47.620Z,14.22
2019-05-01T19:43:17.039Z,14.18
2019-05-01T19:45:46.471Z,14.18
2019-05-01T19:48:16.225Z,14.00
2019-05-01T19:50:48.365Z,14.00
2019-05-01T19:53:18.660Z,14.05
2019-05-01T19:55:47.333Z,13.80
2019-05-01T19:58:19.165Z,13.82
2019-05-01T20:01:06.749Z,13.87
2019-05-01T20:03:39.167Z,13.91
2019-05-01T20:06:08.689Z,13.92
2019-05-01T20:08:38.504Z,13.81
2019-05-01T20:11:09.714Z,13.77
2019-05-01T20:13:39.912Z,13.77
2019-05-01T20:16:09.933Z,13.85
2019-05-01T20:18:39.521Z,13.94
2019-05-01T20:21:08.608Z,13.65
2019-05-01T20:23:38.001Z,13.48
2019-05-01T20:26:09.137Z,13.67
2019-05-01T20:28:39.622Z,13.58
2019-05-01T20:31:09.440Z,13.22
2019-05-01T20:33:44.137Z,13.22
2019-05-01T20:36:11.510Z,13.16
2019-05-01T20:38:41.505Z,13.00
2019-05-01T20:41:16.177Z,12.94
2019-05-01T20:43:43.462Z,12.94
2019-05-01T20:46:11.906Z,12.65
2019-05-01T20:48:41.554Z,12.50
2019-05-01T20:51:11.730Z,12.18
2019-05-01T20:53:42.636Z,12.18
2019-05-01T20:57:34.570Z,12.13
2019-05-01T21:00:16.673Z,12.13
2019-05-01T21:02:44.582Z,11.82
2019-05-01T21:05:25.871Z,11.96
2019-05-01T21:08:11.732Z,11.93
2019-05-01T21:11:06.088Z,12.23
2019-05-01T21:13:35.739Z,11.97
2019-05-01T21:16:04.472Z,11.97
2019-05-01T21:18:33.640Z,11.87
2019-05-01T21:21:04.100Z,11.57
2019-05-01T21:23:34.158Z,11.50
2019-05-01T21:26:04.325Z,11.41
2019-05-01T21:28:34.049Z,11.37
2019-05-01T21:31:04.024Z,11.50
2019-05-01T21:33:34.064Z,11.52
2019-05-01T21:36:04.883Z,11.40
2019-05-01T21:38:34.454Z,11.20
2019-05-01T21:41:03.602Z,11.33
2019-05-01T21:43:36.650Z,11.53
2019-05-01T21:46:04.042Z,11.53
2019-05-01T21:48:33.602Z,11.49
2019-05-01T21:51:03.454Z,11.02
2019-05-01T21:53:33.023Z,10.94
2019-05-01T21:56:06.192Z,11.31
2019-05-01T21:58:36.002Z,11.34
2019-05-01T22:01:06.863Z,11.16
2019-05-01T22:03:36.963Z,10.90
2019-05-01T22:06:05.946Z,10.90
2019-05-01T22:08:39.234Z,10.94
2019-05-01T22:11:06.650Z,10.96
2019-05-01T22:13:35.634Z,10.82
2019-05-01T22:16:11.939Z,10.82
2019-05-01T22:19:01.843Z,10.39
2019-05-01T22:21:59.667Z,10.44
2019-05-01T22:24:43.675Z,10.43
2019-05-01T22:27:18.313Z,10.33
2019-05-01T22:30:05.740Z,10.18
2019-05-01T22:32:44.482Z,10.35
2019-05-01T22:35:39.063Z,10.40
2019-05-01T22:38:08.080Z,10.34
2019-05-01T22:41:05.355Z,10.45
2019-05-01T22:43:25.129Z,10.39
2019-05-01T22:45:56.236Z,10.39
2019-05-01T22:48:25.445Z,10.12
2019-05-01T22:50:57.660Z,10.20
2019-05-01T22:53:26.708Z,10.33
2019-05-01T22:55:57.194Z,10.33
2019-05-01T22:58:25.704Z,10.50
2019-05-01T23:00:55.799Z,10.31
2019-05-01T23:03:43.471Z,10.31
2019-05-01T23:06:12.594Z,10.05
2019-05-01T23:08:42.490Z,9.97
2019-05-01T23:11:19.618Z,9.80
2019-05-01T23:13:43.565Z,9.80
2019-05-01T23:16:14.007Z,10.00
2019-05-01T23:18:47.175Z,9.89
2019-05-01T23:21:14.513Z,9.52
2019-05-01T23:23:44.783Z,9.50
2019-05-01T23:26:16.827Z,9.52
2019-05-01T23:28:44.571Z,9.15
2019-05-01T23:31:13.455Z,9.15
2019-05-01T23:33:45.620Z,9.01
2019-05-01T23:36:23.407Z,9.19
2019-05-01T23:38:44.464Z,9.44
2019-05-01T23:41:13.432Z,9.57
2019-05-01T23:43:42.579Z,9.28
2019-05-01T23:46:12.402Z,9.32
2019-05-01T23:48:42.158Z,9.32
2019-05-01T23:51:11.569Z,9.31
2019-05-01T23:53:44.127Z,9.27
2019-05-01T23:56:12.565Z,9.43
2019-05-01T23:58:42.455Z,9.18
